createdAt,value
2023-05-25T00:01:54.339Z,100756.43
2023-05-25T00:04:26.991Z,100754.27
2023-05-25T00:06:54.934Z,100755.49
2023-05-25T00:09:24.745Z,100756.01
2023-05-25T00:11:53.044Z,100758.34
2023-05-25T00:14:21.356Z,100759.03
2023-05-25T00:16:49.375Z,100763.42
2023-05-25T00:19:18.651Z,100765.04
2023-05-25T00:21:48.353Z,100764.78
2023-05-25T00:24:16.051Z,100766.13
2023-05-25T00:26:43.728Z,100765.83
2023-05-25T00:29:12.787Z,100768.14
2023-05-25T00:31:40.574Z,100770.60
2023-05-25T00:34:09.073Z,100770.39
2023-05-25T00:36:36.889Z,100771.02
2023-05-25T00:39:04.641Z,100772.92
2023-05-25T00:41:33.505Z,100774.32
2023-05-25T00:44:01.229Z,100772.95
2023-05-25T00:46:29.784Z,100775.98
2023-05-25T00:48:57.654Z,100781.24
2023-05-25T00:51:26.836Z,100787.86
2023-05-25T00:53:54.583Z,100785.17
2023-05-25T00:56:28.483Z,100786.88
2023-05-25T00:59:00.899Z,100783.34
2023-05-25T01:01:33.719Z,100788.95
2023-05-25T01:04:03.385Z,100787.73
2023-05-25T01:06:33.379Z,100786.61
2023-05-25T01:09:04.328Z,100783.61
2023-05-25T01:11:35.109Z,100780.88
2023-05-25T01:14:03.462Z,100778.50
2023-05-25T01:16:32.118Z,100775.23
2023-05-25T01:19:02.927Z,100773.36
2023-05-25T01:22:11.179Z,100779.63
2023-05-25T01:24:56.203Z,100780.21
2023-05-25T01:27:46.990Z,100786.08
2023-05-25T01:30:16.966Z,100786.48
2023-05-25T01:32:45.692Z,100788.40
2023-05-25T01:35:14.895Z,100786.11
2023-05-25T01:37:46.859Z,100784.48
2023-05-25T01:40:15.741Z,100784.81
2023-05-25T01:42:43.539Z,100794.23
2023-05-25T01:45:13.418Z,100793.02
2023-05-25T01:48:13.649Z,100787.55
2023-05-25T01:50:53.682Z,100786.02
2023-05-25T01:53:45.832Z,100788.17
2023-05-25T01:56:14.430Z,100785.52
2023-05-25T01:58:47.311Z,100780.30
2023-05-25T02:01:17.253Z,100789.10
2023-05-25T02:03:49.063Z,100785.60
2023-05-25T02:06:17.008Z,100786.20
2023-05-25T02:08:45.831Z,100787.25
2023-05-25T02:11:14.794Z,100791.03
2023-05-25T02:13:42.664Z,100790.91
2023-05-25T02:16:10.493Z,100792.86
2023-05-25T02:18:38.284Z,100790.74
2023-05-25T02:21:06.050Z,100792.59
2023-05-25T02:23:33.750Z,100791.42
2023-05-25T02:26:01.429Z,100792.45
2023-05-25T02:28:29.237Z,100794.52
2023-05-25T02:30:56.941Z,100795.05
2023-05-25T02:33:24.713Z,100802.09
2023-05-25T02:35:52.393Z,100803.11
2023-05-25T02:38:20.185Z,100805.27
2023-05-25T02:40:47.906Z,100803.23
2023-05-25T02:43:15.716Z,100803.59
2023-05-25T02:45:44.968Z,100807.81
2023-05-25T02:48:13.528Z,100808.63
2023-05-25T02:50:42.186Z,100811.40
2023-05-25T02:53:12.506Z,100811.12
2023-05-25T02:55:40.557Z,100807.11
2023-05-25T02:58:10.442Z,100805.38
2023-05-25T03:00:50.771Z,100798.11
2023-05-25T03:03:18.992Z,100793.23
2023-05-25T03:05:49.136Z,100792.80
2023-05-25T03:08:17.350Z,100793.60
2023-05-25T03:10:45.518Z,100796.87
2023-05-25T03:13:13.384Z,100796.89
2023-05-25T03:15:41.109Z,100794.11
2023-05-25T03:18:08.920Z,100790.53
2023-05-25T03:20:38.504Z,100791.35
2023-05-25T03:23:06.421Z,100790.45
2023-05-25T03:25:34.392Z,100789.95
2023-05-25T03:28:02.357Z,100798.89
2023-05-25T03:30:30.687Z,100803.89
2023-05-25T03:32:58.866Z,100805.14
2023-05-25T03:35:30.829Z,100807.47
2023-05-25T03:37:58.653Z,100810.09
2023-05-25T03:40:26.423Z,100810.06
2023-05-25T03:42:55.392Z,100816.27
2023-05-25T03:45:23.167Z,100817.14
2023-05-25T03:47:52.028Z,100817.92
2023-05-25T03:50:21.445Z,100821.71
2023-05-25T03:52:49.630Z,100824.15
2023-05-25T03:55:17.803Z,100827.25
2023-05-25T03:57:45.932Z,100831.59
2023-05-25T04:00:14.606Z,100828.20
2023-05-25T04:02:43.814Z,100835.89
2023-05-25T04:05:11.641Z,100841.52
2023-05-25T04:07:40.756Z,100846.67
2023-05-25T04:10:09.207Z,100844.48
2023-05-25T04:12:37.710Z,100839.13
2023-05-25T04:15:09.201Z,100841.67
2023-05-25T04:17:46.796Z,100850.69
2023-05-25T04:20:14.585Z,100851.32
2023-05-25T04:22:43.960Z,100853.35
2023-05-25T04:25:11.675Z,100857.05
2023-05-25T04:27:39.344Z,100859.42
2023-05-25T04:30:11.180Z,100857.15
2023-05-25T04:33:03.054Z,100855.91
2023-05-25T04:35:36.802Z,100854.15
2023-05-25T04:38:05.048Z,100856.02
2023-05-25T04:40:35.489Z,100854.70
2023-05-25T04:43:05.128Z,100857.08
2023-05-25T04:45:33.428Z,100857.30
2023-05-25T04:48:03.090Z,100858.64
2023-05-25T04:50:30.924Z,100861.10
2023-05-25T04:52:58.685Z,100855.60
2023-05-25T04:55:26.535Z,100857.91
2023-05-25T04:57:55.343Z,100863.73
2023-05-25T05:00:24.046Z,100861.33
2023-05-25T05:02:56.609Z,100859.00
2023-05-25T05:05:24.813Z,100857.13
2023-05-25T05:07:54.004Z,100854.66
2023-05-25T05:10:22.083Z,100858.34
2023-05-25T05:12:54.251Z,100866.20
2023-05-25T05:15:22.200Z,100867.81
2023-05-25T05:17:50.918Z,100871.70
2023-05-25T05:20:19.037Z,100871.14
2023-05-25T05:22:46.961Z,100867.23
2023-05-25T05:25:14.798Z,100875.07
2023-05-25T05:27:42.508Z,100877.20
2023-05-25T05:30:33.086Z,100878.91
2023-05-25T05:33:01.865Z,100878.55
2023-05-25T05:35:32.942Z,100880.27
2023-05-25T05:38:10.969Z,100878.56
2023-05-25T05:40:39.116Z,100875.61
2023-05-25T05:43:10.967Z,100877.02
2023-05-25T05:45:38.965Z,100881.08
2023-05-25T05:48:11.283Z,100881.54
2023-05-25T05:50:42.044Z,100886.35
2023-05-25T05:53:11.356Z,100890.36
2023-05-25T05:55:39.369Z,100891.79
2023-05-25T05:58:07.060Z,100891.91
2023-05-25T06:00:34.815Z,100891.23
2023-05-25T06:03:02.620Z,100888.84
2023-05-25T06:05:31.255Z,100894.00
2023-05-25T06:07:59.294Z,100898.48
2023-05-25T06:10:27.005Z,100901.58
2023-05-25T06:12:54.932Z,100903.46
2023-05-25T06:15:22.744Z,100911.90
2023-05-25T06:17:51.397Z,100910.13
2023-05-25T06:20:19.278Z,100916.70
2023-05-25T06:22:47.252Z,100921.74
2023-05-25T06:25:16.527Z,100924.56
2023-05-25T06:27:44.805Z,100917.80
2023-05-25T06:30:13.014Z,100925.70
2023-05-25T06:32:43.249Z,100923.73
2023-05-25T06:35:17.374Z,100921.44
2023-05-25T06:37:49.772Z,100925.84
2023-05-25T06:40:19.170Z,100928.16
2023-05-25T06:42:47.048Z,100926.59
2023-05-25T06:45:42.156Z,100925.59
2023-05-25T06:48:10.064Z,100927.68
2023-05-25T06:50:37.873Z,100927.93
2023-05-25T06:53:06.158Z,100924.17
2023-05-25T06:55:33.825Z,100930.88
2023-05-25T06:58:01.492Z,100930.95
2023-05-25T07:00:29.280Z,100931.57
2023-05-25T07:02:57.060Z,100933.06
2023-05-25T07:05:24.992Z,100930.92
2023-05-25T07:07:52.811Z,100933.81
2023-05-25T07:10:20.612Z,100936.65
2023-05-25T07:12:48.307Z,100936.70
2023-05-25T07:15:16.397Z,100936.02
2023-05-25T07:17:45.186Z,100933.31
2023-05-25T07:20:13.337Z,100932.58
2023-05-25T07:22:42.239Z,100935.45
2023-05-25T07:25:10.159Z,100933.25
2023-05-25T07:27:38.013Z,100935.85
2023-05-25T07:30:06.617Z,100933.25
2023-05-25T07:32:34.477Z,100935.35
2023-05-25T07:35:03.442Z,100935.77
2023-05-25T07:37:31.238Z,100930.36
2023-05-25T07:39:58.915Z,100932.80
2023-05-25T07:42:33.757Z,100931.36
2023-05-25T07:45:02.234Z,100930.82
2023-05-25T07:47:30.139Z,100930.72
2023-05-25T07:49:58.148Z,100932.60
2023-05-25T07:52:25.866Z,100931.17
2023-05-25T07:54:53.850Z,100929.74
2023-05-25T07:57:21.774Z,100930.29
2023-05-25T07:59:49.558Z,100930.28
2023-05-25T08:02:17.296Z,100923.66
2023-05-25T08:04:45.274Z,100927.59
2023-05-25T08:07:13.740Z,100929.02
2023-05-25T08:09:41.494Z,100927.73
2023-05-25T08:12:30.757Z,100931.63
2023-05-25T08:14:56.749Z,100932.16
2023-05-25T08:17:24.823Z,100928.66
2023-05-25T08:19:52.652Z,100930.98
2023-05-25T08:22:20.390Z,100930.10
2023-05-25T08:24:48.104Z,100931.10
2023-05-25T08:27:16.612Z,100933.90
2023-05-25T08:29:44.298Z,100929.41
2023-05-25T08:32:12.148Z,100934.03
2023-05-25T08:34:41.963Z,100936.33
2023-05-25T08:37:09.654Z,100935.31
2023-05-25T08:39:37.372Z,100933.48
2023-05-25T08:42:07.076Z,100933.43
2023-05-25T08:44:36.861Z,100937.98
2023-05-25T08:47:08.251Z,100933.64
2023-05-25T08:49:38.861Z,100937.07
2023-05-25T08:52:13.577Z,100935.75
2023-05-25T08:54:45.212Z,100939.64
2023-05-25T08:57:44.624Z,100937.40
2023-05-25T09:00:15.681Z,100936.87
2023-05-25T09:03:02.399Z,100936.62
2023-05-25T09:05:30.767Z,100943.04
2023-05-25T09:07:58.995Z,100939.90
2023-05-25T09:10:28.031Z,100936.30
2023-05-25T09:12:56.297Z,100940.95
2023-05-25T09:15:24.105Z,100939.55
2023-05-25T09:17:51.882Z,100939.42
2023-05-25T09:20:20.290Z,100941.21
2023-05-25T09:22:48.222Z,100934.11
2023-05-25T09:25:22.732Z,100933.08
2023-05-25T09:27:51.731Z,100936.75
2023-05-25T09:30:19.554Z,100936.56
2023-05-25T09:32:47.348Z,100940.45
2023-05-25T09:35:15.861Z,100938.12
2023-05-25T09:37:45.200Z,100938.11
2023-05-25T09:40:14.797Z,100941.97
2023-05-25T09:42:43.137Z,100939.99
2023-05-25T09:45:11.149Z,100939.13
2023-05-25T09:47:40.611Z,100937.80
2023-05-25T09:50:09.217Z,100942.08
2023-05-25T09:52:37.056Z,100938.35
2023-05-25T09:55:10.399Z,100938.65
2023-05-25T09:57:39.048Z,100935.17
2023-05-25T10:00:08.612Z,100941.53
2023-05-25T10:02:39.388Z,100939.78
2023-05-25T10:05:09.358Z,100945.06
2023-05-25T10:07:40.413Z,100941.73
2023-05-25T10:10:10.277Z,100937.65
2023-05-25T10:12:41.052Z,100940.23
2023-05-25T10:15:12.639Z,100936.48
2023-05-25T10:17:45.951Z,100939.48
2023-05-25T10:20:15.701Z,100929.98
2023-05-25T10:23:08.244Z,100939.20
2023-05-25T10:25:46.832Z,100931.44
2023-05-25T10:28:22.007Z,100930.04
2023-05-25T10:30:51.022Z,100923.96
2023-05-25T10:33:21.048Z,100929.05
2023-05-25T10:36:08.567Z,100923.61
2023-05-25T10:38:40.192Z,100923.59
2023-05-25T10:41:11.200Z,100925.25
2023-05-25T10:43:41.038Z,100920.67
2023-05-25T10:46:09.571Z,100916.92
2023-05-25T10:48:38.637Z,100917.01
2023-05-25T10:51:11.812Z,100913.37
2023-05-25T10:53:45.914Z,100915.09
2023-05-25T10:56:14.576Z,100914.66
2023-05-25T10:58:44.293Z,100914.70
2023-05-25T11:01:13.935Z,100918.05
2023-05-25T11:03:45.330Z,100915.67
2023-05-25T11:06:17.836Z,100916.73
2023-05-25T11:09:06.592Z,100910.17
2023-05-25T11:11:43.255Z,100906.52
2023-05-25T11:14:27.756Z,100905.02
2023-05-25T11:17:13.120Z,100911.75
2023-05-25T11:19:50.777Z,100906.66
2023-05-25T11:22:23.001Z,100901.72
2023-05-25T11:24:52.436Z,100895.15
2023-05-25T11:27:24.373Z,100893.52
2023-05-25T11:29:53.744Z,100890.30
2023-05-25T11:32:23.011Z,100890.51
2023-05-25T11:34:54.023Z,100886.91
2023-05-25T12:01:23.565Z,100877.84
2023-05-25T12:03:56.944Z,100871.52
2023-05-25T12:06:33.270Z,100874.38
2023-05-25T12:09:01.025Z,100865.66
2023-05-25T12:11:35.831Z,100867.27
2023-05-25T12:14:04.385Z,100863.65
2023-05-25T12:16:34.145Z,100860.10
2023-05-25T12:19:01.363Z,100859.74
2023-05-25T12:21:28.275Z,100853.73
2023-05-25T12:23:55.279Z,100855.73
2023-05-25T12:26:22.100Z,100852.14
2023-05-25T12:29:06.544Z,100854.66
2023-05-25T12:31:34.993Z,100846.11
2023-05-25T12:34:05.920Z,100850.08
2023-05-25T12:36:52.554Z,100849.13
2023-05-25T12:39:31.117Z,100850.80
2023-05-25T12:42:00.032Z,100848.86
2023-05-25T12:44:28.175Z,100845.59
2023-05-25T12:46:55.565Z,100840.41
2023-05-25T12:49:30.750Z,100835.17
2023-05-25T12:51:58.840Z,100834.90
2023-05-25T12:54:54.348Z,100831.20
2023-05-25T12:57:20.834Z,100827.57
2023-05-25T12:59:47.574Z,100824.80
2023-05-25T13:02:14.460Z,100822.05
2023-05-25T13:04:41.440Z,100814.30
2023-05-25T13:07:09.329Z,100823.21
2023-05-25T13:09:36.434Z,100822.00
2023-05-25T13:12:03.995Z,100818.16
2023-05-25T13:14:30.486Z,100812.03
2023-05-25T13:16:57.364Z,100810.66
2023-05-25T13:19:25.302Z,100806.77
2023-05-25T13:21:52.461Z,100803.59
2023-05-25T13:24:19.151Z,100809.59
2023-05-25T13:26:48.175Z,100803.96
2023-05-25T13:29:16.713Z,100802.59
2023-05-25T13:31:43.379Z,100798.03
2023-05-25T13:34:10.095Z,100795.38
2023-05-25T13:36:36.549Z,100797.27
2023-05-25T13:39:04.607Z,100791.39
2023-05-25T13:41:31.754Z,100793.05
2023-05-25T13:43:59.877Z,100788.75
2023-05-25T13:46:34.149Z,100785.70
2023-05-25T13:49:01.764Z,100787.19
2023-05-25T13:51:28.226Z,100779.88
2023-05-25T13:53:55.013Z,100780.42
2023-05-25T13:56:21.734Z,100779.80
2023-05-25T13:58:48.367Z,100777.45
2023-05-25T14:01:15.063Z,100780.45
2023-05-25T14:03:42.163Z,100779.12
2023-05-25T14:06:09.010Z,100775.80
2023-05-25T14:08:35.467Z,100776.36
2023-05-25T14:11:02.417Z,100779.17
2023-05-25T14:13:28.963Z,100774.90
2023-05-25T14:15:55.646Z,100773.02
2023-05-25T14:18:22.206Z,100769.18
2023-05-25T14:20:49.114Z,100768.84
2023-05-25T14:23:16.656Z,100767.58
2023-05-25T14:25:46.354Z,100766.51
2023-05-25T14:28:13.138Z,100766.41
2023-05-25T14:30:39.729Z,100762.05
2023-05-25T14:33:07.052Z,100767.11
2023-05-25T14:35:33.777Z,100764.29
2023-05-25T14:38:00.239Z,100768.12
2023-05-25T14:40:26.747Z,100771.04
2023-05-25T14:42:54.831Z,100770.95
2023-05-25T14:45:21.231Z,100768.27
2023-05-25T14:47:47.968Z,100765.33
2023-05-25T14:50:14.482Z,100762.55
2023-05-25T14:52:41.339Z,100761.08
2023-05-25T14:55:13.114Z,100760.48
2023-05-25T15:10:32.168Z,100761.84
2023-05-25T15:13:00.054Z,100760.72
2023-05-25T15:15:28.024Z,100759.60
2023-05-25T15:17:55.936Z,100761.83
2023-05-25T15:20:24.005Z,100761.06
2023-05-25T15:22:53.963Z,100761.28
2023-05-25T15:25:34.935Z,100762.36
2023-05-25T15:28:04.111Z,100762.08
2023-05-25T15:30:33.252Z,100764.18
2023-05-25T15:33:02.086Z,100758.65
2023-05-25T15:35:32.862Z,100756.24
2023-05-25T15:38:01.506Z,100756.61
2023-05-25T15:40:29.702Z,100750.48
2023-05-25T15:42:58.018Z,100748.27
2023-05-25T15:45:26.436Z,100746.92
2023-05-25T15:47:54.420Z,100750.56
2023-05-25T15:50:22.254Z,100750.59
2023-05-25T15:52:50.301Z,100748.11
2023-05-25T15:55:18.307Z,100752.45
2023-05-25T15:57:46.240Z,100750.22
2023-05-25T16:00:14.548Z,100747.03
2023-05-25T16:02:42.297Z,100749.92
2023-05-25T16:05:10.125Z,100748.52
2023-05-25T16:07:37.965Z,100748.34
2023-05-25T16:10:06.356Z,100745.23
2023-05-25T16:12:34.125Z,100746.42
2023-05-25T16:15:01.909Z,100743.60
2023-05-25T16:17:30.150Z,100742.85
2023-05-25T16:19:58.067Z,100741.59
2023-05-25T16:22:26.244Z,100739.46
2023-05-25T16:24:54.280Z,100736.59
2023-05-25T16:27:22.058Z,100740.76
2023-05-25T16:29:50.026Z,100742.84
2023-05-25T16:32:18.534Z,100741.01
2023-05-25T16:34:46.901Z,100743.92
2023-05-25T16:37:14.847Z,100744.93
2023-05-25T16:39:42.810Z,100739.97
2023-05-25T16:42:10.830Z,100743.55
2023-05-25T16:44:38.852Z,100740.75
2023-05-25T16:47:06.735Z,100738.32
2023-05-25T16:49:34.957Z,100739.02
2023-05-25T16:52:03.044Z,100735.45
2023-05-25T16:54:31.211Z,100731.05
2023-05-25T16:56:59.359Z,100730.21
2023-05-25T16:59:27.247Z,100734.57
2023-05-25T17:01:55.881Z,100735.63
2023-05-25T17:04:23.742Z,100738.23
2023-05-25T17:06:51.791Z,100738.48
2023-05-25T17:09:21.186Z,100743.62
2023-05-25T17:11:48.982Z,100739.70
2023-05-25T17:14:17.120Z,100739.87
2023-05-25T17:16:44.957Z,100740.19
2023-05-25T17:19:15.001Z,100739.27
2023-05-25T17:21:43.567Z,100739.56
2023-05-25T17:24:11.358Z,100741.09
2023-05-25T17:26:39.222Z,100743.94
2023-05-25T17:29:07.545Z,100746.33
2023-05-25T17:31:35.507Z,100745.34
2023-05-25T17:34:03.969Z,100752.16
2023-05-25T17:36:32.388Z,100749.42
2023-05-25T17:39:00.620Z,100748.60
2023-05-25T17:41:29.530Z,100747.95
2023-05-25T17:43:57.958Z,100749.92
2023-05-25T17:46:26.337Z,100749.97
2023-05-25T17:48:54.813Z,100751.69
2023-05-25T17:51:22.965Z,100753.09
2023-05-25T17:53:51.439Z,100752.20
2023-05-25T17:56:19.871Z,100750.38
2023-05-25T17:58:48.485Z,100753.77
2023-05-25T18:01:17.162Z,100757.13
2023-05-25T18:03:45.801Z,100761.28
2023-05-25T18:06:15.146Z,100758.91
2023-05-25T18:08:44.272Z,100757.46
2023-05-25T18:11:12.392Z,100760.14
2023-05-25T18:13:40.686Z,100758.69
2023-05-25T18:16:09.296Z,100762.27
2023-05-25T18:18:37.104Z,100757.39
2023-05-25T18:21:05.803Z,100761.44
2023-05-25T18:23:34.332Z,100761.85
2023-05-25T18:26:04.394Z,100763.95
2023-05-25T18:28:32.589Z,100766.57
2023-05-25T18:31:00.742Z,100771.45
2023-05-25T18:33:29.762Z,100774.80
2023-05-25T18:35:58.105Z,100780.42
2023-05-25T18:38:26.054Z,100778.33
2023-05-25T18:40:54.064Z,100782.48
2023-05-25T18:43:22.441Z,100779.84
2023-05-25T18:45:50.672Z,100780.48
2023-05-25T18:48:19.869Z,100786.34
2023-05-25T18:50:48.286Z,100788.86
2023-05-25T18:53:17.097Z,100795.33
2023-05-25T18:55:45.998Z,100800.98
2023-05-25T18:58:14.456Z,100802.38
2023-05-25T19:00:42.224Z,100807.27
2023-05-25T19:03:11.011Z,100805.84
2023-05-25T19:05:39.300Z,100807.89
2023-05-25T19:08:08.330Z,100807.09
2023-05-25T19:10:36.482Z,100812.04
2023-05-25T19:13:06.724Z,100812.98
2023-05-25T19:15:35.002Z,100816.49
2023-05-25T19:18:04.630Z,100816.30
2023-05-25T19:20:33.963Z,100815.23
2023-05-25T19:23:04.354Z,100814.95
2023-05-25T19:25:32.613Z,100815.27
2023-05-25T19:28:02.876Z,100813.33
2023-05-25T19:30:32.249Z,100816.66
2023-05-25T19:33:00.496Z,100813.13
2023-05-25T19:35:28.770Z,100813.37
2023-05-25T19:37:56.536Z,100814.77
2023-05-25T19:40:24.824Z,100815.14
2023-05-25T19:42:53.078Z,100818.81
2023-05-25T19:45:21.080Z,100816.63
2023-05-25T19:47:50.019Z,100816.55
2023-05-25T19:50:19.195Z,100819.42
2023-05-25T19:52:47.847Z,100817.51
2023-05-25T19:55:15.974Z,100818.33
2023-05-25T19:57:46.315Z,100813.94
2023-05-25T20:00:25.537Z,100812.98
2023-05-25T20:02:55.891Z,100811.20
2023-05-25T20:05:24.582Z,100808.85
2023-05-25T20:07:52.797Z,100808.41
2023-05-25T20:10:20.779Z,100811.82
2023-05-25T20:12:49.034Z,100812.15
2023-05-25T20:15:18.429Z,100811.77
2023-05-25T20:17:46.466Z,100809.57
2023-05-25T20:20:15.706Z,100812.73
2023-05-25T20:22:43.926Z,100815.09
2023-05-25T20:25:12.273Z,100814.39
2023-05-25T20:27:40.107Z,100812.24
2023-05-25T20:30:08.827Z,100814.79
2023-05-25T20:32:38.479Z,100815.77
2023-05-25T20:35:06.600Z,100810.38
2023-05-25T20:37:35.393Z,100816.16
2023-05-25T20:40:06.631Z,100816.57
2023-05-25T20:42:34.508Z,100813.67
2023-05-25T20:45:02.390Z,100815.15
2023-05-25T20:47:30.662Z,100818.04
2023-05-25T20:49:59.229Z,100816.73
2023-05-25T20:52:26.984Z,100816.80
2023-05-25T20:54:54.975Z,100817.17
2023-05-25T20:57:22.866Z,100820.84
2023-05-25T20:59:51.739Z,100820.61
2023-05-25T21:02:20.093Z,100827.95
2023-05-25T21:04:48.115Z,100823.10
2023-05-25T21:07:15.960Z,100826.91
2023-05-25T21:09:43.714Z,100828.39
2023-05-25T21:12:11.559Z,100828.14
2023-05-25T21:14:39.377Z,100831.61
2023-05-25T21:17:07.177Z,100828.05
2023-05-25T21:19:34.966Z,100835.83
2023-05-25T21:22:02.939Z,100830.98
2023-05-25T21:24:30.860Z,100832.65
2023-05-25T21:26:58.706Z,100834.23
2023-05-25T21:29:26.414Z,100832.40
2023-05-25T21:31:54.237Z,100833.91
2023-05-25T21:34:22.288Z,100836.32
2023-05-25T21:36:50.177Z,100835.95
2023-05-25T21:39:18.144Z,100839.73
2023-05-25T21:41:45.900Z,100839.13
2023-05-25T21:44:13.708Z,100840.74
2023-05-25T21:46:41.486Z,100841.95
2023-05-25T21:49:09.264Z,100842.69
2023-05-25T21:51:37.376Z,100845.36
2023-05-25T21:54:05.405Z,100843.04
2023-05-25T21:56:33.960Z,100840.98
2023-05-25T21:59:01.674Z,100842.23
2023-05-25T22:01:29.545Z,100843.99
2023-05-25T22:03:57.482Z,100844.80
2023-05-25T22:06:25.341Z,100847.17
2023-05-25T22:08:53.108Z,100849.58
2023-05-25T22:11:22.181Z,100852.89
2023-05-25T22:13:50.371Z,100852.47
2023-05-25T22:16:18.215Z,100857.30
2023-05-25T22:18:46.022Z,100858.98
2023-05-25T22:21:14.815Z,100859.55
2023-05-25T22:23:42.567Z,100859.49
2023-05-25T22:26:10.379Z,100859.92
2023-05-25T22:28:38.179Z,100861.54
2023-05-25T22:31:06.036Z,100859.04
2023-05-25T22:33:33.856Z,100860.63
2023-05-25T22:36:01.714Z,100859.02
2023-05-25T22:38:29.532Z,100863.73
2023-05-25T22:40:57.320Z,100864.45
2023-05-25T22:43:26.997Z,100863.27
2023-05-25T22:45:54.762Z,100863.90
2023-05-25T22:48:22.472Z,100867.87
2023-05-25T22:50:50.292Z,100869.13
2023-05-25T22:53:18.129Z,100871.92
2023-05-25T22:55:47.554Z,100867.23
2023-05-25T22:58:16.574Z,100866.99
2023-05-25T23:00:44.370Z,100865.30
2023-05-25T23:03:12.293Z,100863.09
2023-05-25T23:05:40.234Z,100860.52
2023-05-25T23:08:09.314Z,100859.96
2023-05-25T23:10:37.014Z,100862.91
2023-05-25T23:13:06.288Z,100869.27
2023-05-25T23:15:40.069Z,100868.68
2023-05-25T23:18:08.288Z,100877.48
2023-05-25T23:20:36.219Z,100874.42
2023-05-25T23:23:04.167Z,100879.30
2023-05-25T23:25:32.131Z,100877.83
2023-05-25T23:27:59.912Z,100877.46
2023-05-25T23:30:27.694Z,100877.35
2023-05-25T23:32:55.575Z,100876.38
2023-05-25T23:35:23.635Z,100873.05
2023-05-25T23:37:52.179Z,100866.27
2023-05-25T23:40:19.988Z,100870.81
2023-05-25T23:42:48.933Z,100872.65
2023-05-25T23:45:16.851Z,100874.79
2023-05-25T23:47:44.885Z,100876.13
2023-05-25T23:50:12.721Z,100882.64
2023-05-25T23:52:41.543Z,100881.71
2023-05-25T23:55:10.941Z,100886.27
2023-05-25T23:57:39.356Z,100879.37
